Time,TemperatureF,DewpointF,PressureIn,WindDirection,WindDirectionDegrees,WindSpeedMPH,WindSpeedGustMPH,Humidity,HourlyPrecipIn,Conditions,Clouds,dailyrainin,SoftwareType,DateUTC
2013-03-04 00:01:00,25.0,7.0,29.70,SSW,201,2.0,14.0,46,0.00,,,0.00,,2013-03-04 07:01:00,
2013-03-04 00:11:00,25.0,7.0,29.70,SSW,201,2.0,14.0,46,0.00,,,0.00,,2013-03-04 07:11:00,
2013-03-04 00:21:00,24.0,7.0,29.70,SW,217,5.0,7.0,47,0.00,,,0.00,,2013-03-04 07:21:00,
2013-03-04 00:31:00,24.0,9.0,29.71,NNW,334,5.0,14.0,51,0.00,,,0.00,,2013-03-04 07:31:00,
2013-03-04 00:41:00,24.0,9.0,29.71,NNW,334,5.0,14.0,51,0.00,,,0.00,,2013-03-04 07:41:00,
2013-03-04 00:52:00,24.0,8.0,29.73,NNE,19,3.0,9.0,50,0.00,,,0.00,,2013-03-04 07:52:00,
2013-03-04 01:01:00,23.0,8.0,29.73,South,184,6.0,9.0,53,0.00,,,0.00,,2013-03-04 08:01:00,
2013-03-04 01:11:00,23.0,8.0,29.73,South,184,6.0,9.0,53,0.00,,,0.00,,2013-03-04 08:11:00,
2013-03-04 01:21:00,23.0,9.0,29.73,ESE,102,6.0,9.0,54,0.00,,,0.00,,2013-03-04 08:21:00,
2013-03-04 01:31:00,24.0,8.0,29.73,SSE,163,13.0,21.0,49,0.00,,,0.00,,2013-03-04 08:31:00,
2013-03-04 01:41:00,24.0,8.0,29.73,SSE,163,13.0,21.0,49,0.00,,,0.00,,2013-03-04 08:41:00,
2013-03-04 01:52:00,22.0,11.0,29.74,ESE,106,6.0,17.0,63,0.00,,,0.00,,2013-03-04 08:52:00,
2013-03-04 02:01:00,22.0,8.0,29.75,South,170,2.0,15.0,53,0.00,,,0.00,,2013-03-04 09:01:00,
2013-03-04 02:11:00,22.0,8.0,29.75,South,170,2.0,15.0,53,0.00,,,0.00,,2013-03-04 09:11:00,
2013-03-04 02:21:00,20.0,11.0,29.76,West,274,4.0,9.0,66,0.00,,,0.00,,2013-03-04 09:21:00,
2013-03-04 02:31:00,19.0,11.0,29.76,SSW,197,3.0,6.0,69,0.00,,,0.00,,2013-03-04 09:31:00,
2013-03-04 02:41:00,19.0,11.0,29.76,SSW,197,3.0,6.0,69,0.00,,,0.00,,2013-03-04 09:41:00,
2013-03-04 02:51:00,19.0,11.0,29.77,SSW,209,3.0,6.0,70,0.00,,,0.00,,2013-03-04 09:51:00,
2013-03-04 03:01:00,19.0,11.0,29.79,East,80,1.0,9.0,71,0.00,,,0.00,,2013-03-04 10:01:00,
2013-03-04 03:11:00,19.0,11.0,29.79,East,80,1.0,9.0,71,0.00,,,0.00,,2013-03-04 10:11:00,
2013-03-04 03:21:00,18.0,11.0,29.79,SSW,211,3.0,6.0,72,0.00,,,0.00,,2013-03-04 10:21:00,
2013-03-04 03:31:00,18.0,11.0,29.79,SSW,211,3.0,6.0,72,0.00,,,0.00,,2013-03-04 10:31:00,
2013-03-04 03:41:00,18.0,11.0,29.79,SSW,211,3.0,6.0,72,0.00,,,0.00,,2013-03-04 10:41:00,
2013-03-04 03:52:00,16.0,9.0,29.80,South,190,2.0,9.0,72,0.00,,,0.00,,2013-03-04 10:52:00,
2013-03-04 04:01:00,18.0,10.0,29.81,NNE,15,1.0,8.0,69,0.00,,,0.00,,2013-03-04 11:01:00,
2013-03-04 04:11:00,18.0,10.0,29.81,NNE,15,1.0,8.0,69,0.00,,,0.00,,2013-03-04 11:11:00,
2013-03-04 04:21:00,17.0,10.0,29.82,SW,223,1.0,6.0,72,0.00,,,0.00,,2013-03-04 11:21:00,
2013-03-04 04:31:00,16.0,9.0,29.84,NW,312,2.0,9.0,72,0.00,,,0.00,,2013-03-04 11:31:00,
2013-03-04 04:41:00,16.0,9.0,29.84,NW,312,2.0,9.0,72,0.00,,,0.00,,2013-03-04 11:41:00,
2013-03-04 04:52:00,17.0,10.0,29.84,SSW,204,4.0,7.0,72,0.00,,,0.00,,2013-03-04 11:52:00,
2013-03-04 05:01:00,19.0,11.0,29.85,North,355,2.0,4.0,69,0.00,,,0.00,,2013-03-04 12:01:00,
2013-03-04 05:11:00,19.0,11.0,29.85,North,355,2.0,4.0,69,0.00,,,0.00,,2013-03-04 12:11:00,
2013-03-04 05:22:00,18.0,9.0,29.86,North,5,5.0,6.0,68,0.00,,,0.00,,2013-03-04 12:22:00,
2013-03-04 05:32:00,19.0,11.0,29.87,South,178,5.0,8.0,70,0.00,,,0.00,,2013-03-04 12:32:00,
2013-03-04 05:42:00,19.0,11.0,29.87,South,178,5.0,8.0,70,0.00,,,0.00,,2013-03-04 12:42:00,
2013-03-04 05:52:00,19.0,10.0,29.88,SSE,150,5.0,8.0,68,0.00,,,0.00,,2013-03-04 12:52:00,
2013-03-04 06:02:00,19.0,10.0,29.89,SSW,207,1.0,6.0,67,0.00,,,0.00,,2013-03-04 13:02:00,
2013-03-04 06:11:00,19.0,10.0,29.89,SSW,207,1.0,6.0,67,0.00,,,0.00,,2013-03-04 13:11:00,
2013-03-04 06:21:00,19.0,11.0,29.90,West,268,5.0,13.0,69,0.00,,,0.00,,2013-03-04 13:21:00,
2013-03-04 06:31:00,20.0,11.0,29.92,WNW,286,3.0,8.0,67,0.00,,,0.00,,2013-03-04 13:31:00,
2013-03-04 06:41:00,20.0,11.0,29.92,WNW,286,3.0,8.0,67,0.00,,,0.00,,2013-03-04 13:41:00,
2013-03-04 06:51:00,20.0,11.0,29.93,South,170,5.0,10.0,68,0.00,,,0.00,,2013-03-04 13:51:00,
2013-03-04 07:01:00,21.0,11.0,29.94,South,185,7.0,9.0,64,0.00,,,0.00,,2013-03-04 14:01:00,
2013-03-04 07:11:00,21.0,11.0,29.94,South,185,7.0,9.0,64,0.00,,,0.00,,2013-03-04 14:11:00,
2013-03-04 07:22:00,22.0,8.0,29.94,South,180,6.0,10.0,53,0.00,,,0.00,,2013-03-04 14:22:00,
2013-03-04 07:32:00,22.0,10.0,29.96,NNW,327,4.0,5.0,59,0.00,,,0.00,,2013-03-04 14:32:00,
2013-03-04 07:41:00,22.0,10.0,29.96,NNW,327,4.0,5.0,59,0.00,,,0.00,,2013-03-04 14:41:00,
2013-03-04 07:52:00,22.0,6.0,29.96,NNE,13,3.0,9.0,49,0.00,,,0.00,,2013-03-04 14:52:00,
2013-03-04 08:01:00,23.0,8.0,29.97,South,180,3.0,6.0,53,0.00,,,0.00,,2013-03-04 15:01:00,
2013-03-04 08:11:00,23.0,8.0,29.97,South,180,3.0,6.0,53,0.00,,,0.00,,2013-03-04 15:11:00,
2013-03-04 08:21:00,22.0,9.0,29.98,SSE,162,2.0,6.0,56,0.00,,,0.00,,2013-03-04 15:21:00,
2013-03-04 08:31:00,23.0,8.0,29.98,SW,215,1.0,5.0,51,0.00,,,0.00,,2013-03-04 15:31:00,
2013-03-04 08:42:00,23.0,8.0,29.98,SW,215,1.0,5.0,51,0.00,,,0.00,,2013-03-04 15:42:00,
2013-03-04 08:51:00,22.0,10.0,29.99,NE,44,3.0,7.0,60,0.00,,,0.00,,2013-03-04 15:51:00,
2013-03-04 09:02:00,21.0,10.0,30.00,ESE,102,6.0,10.0,62,0.00,,,0.00,,2013-03-04 16:02:00,
2013-03-04 09:11:00,21.0,10.0,30.00,ESE,102,6.0,10.0,62,0.00,,,0.00,,2013-03-04 16:11:00,
2013-03-04 09:21:00,22.0,8.0,30.01,ESE,121,9.0,14.0,55,0.00,,,0.00,,2013-03-04 16:21:00,
2013-03-04 09:31:00,23.0,10.0,30.03,SSE,148,7.0,11.0,56,0.00,,,0.00,,2013-03-04 16:31:00,
2013-03-04 09:41:00,23.0,10.0,30.03,SSE,148,7.0,11.0,56,0.00,,,0.00,,2013-03-04 16:41:00,
2013-03-04 09:52:00,23.0,9.0,30.04,SSW,196,8.0,12.0,54,0.00,,,0.00,,2013-03-04 16:52:00,
2013-03-04 10:02:00,24.0,8.0,30.05,South,178,7.0,11.0,50,0.00,,,0.00,,2013-03-04 17:02:00,
2013-03-04 10:11:00,24.0,8.0,30.05,South,178,7.0,11.0,50,0.00,,,0.00,,2013-03-04 17:11:00,
2013-03-04 10:21:00,25.0,10.0,30.06,SSE,148,6.0,10.0,52,0.00,,,0.00,,2013-03-04 17:21:00,
2013-03-04 10:31:00,25.0,9.0,30.07,SSE,167,4.0,8.0,51,0.00,,,0.00,,2013-03-04 17:31:00,
2013-03-04 10:42:00,25.0,9.0,30.07,SSE,167,4.0,8.0,51,0.00,,,0.00,,2013-03-04 17:42:00,
2013-03-04 10:52:00,25.0,7.0,30.08,SSE,159,3.0,5.0,46,0.00,,,0.00,,2013-03-04 17:52:00,
2013-03-04 11:01:00,26.0,10.0,30.09,SE,146,6.0,8.0,50,0.00,,,0.00,,2013-03-04 18:01:00,
2013-03-04 11:11:00,26.0,10.0,30.09,SE,146,6.0,8.0,50,0.00,,,0.00,,2013-03-04 18:11:00,
2013-03-04 11:21:00,27.0,10.0,30.09,NE,44,9.0,17.0,49,0.00,,,0.00,,2013-03-04 18:21:00,
2013-03-04 11:32:00,26.0,8.0,30.10,ENE,72,7.0,19.0,45,0.00,,,0.00,,2013-03-04 18:32:00,
2013-03-04 11:42:00,26.0,8.0,30.10,ENE,72,7.0,19.0,45,0.00,,,0.00,,2013-03-04 18:42:00,
2013-03-04 11:52:00,26.0,8.0,30.11,NE,48,9.0,19.0,45,0.00,,,0.00,,2013-03-04 18:52:00,
2013-03-04 12:01:00,26.0,8.0,30.11,North,9,5.0,22.0,45,0.00,,,0.00,,2013-03-04 19:01:00,
2013-03-04 12:11:00,26.0,8.0,30.11,North,9,5.0,22.0,45,0.00,,,0.00,,2013-03-04 19:11:00,
2013-03-04 12:21:00,28.0,9.0,30.11,North,360,10.0,22.0,45,0.00,,,0.00,,2013-03-04 19:21:00,
2013-03-04 12:32:00,27.0,8.0,30.12,NNE,16,12.0,20.0,44,0.00,,,0.00,,2013-03-04 19:32:00,
2013-03-04 12:42:00,27.0,8.0,30.12,NNE,16,12.0,20.0,44,0.00,,,0.00,,2013-03-04 19:42:00,
2013-03-04 12:51:00,27.0,7.0,30.12,NE,39,4.0,17.0,42,0.00,,,0.00,,2013-03-04 19:51:00,
2013-03-04 13:01:00,27.0,6.0,30.13,NNE,20,11.0,24.0,41,0.00,,,0.00,,2013-03-04 20:01:00,
2013-03-04 13:11:00,27.0,6.0,30.13,NNE,20,11.0,24.0,41,0.00,,,0.00,,2013-03-04 20:11:00,
2013-03-04 13:21:00,27.0,7.0,30.13,East,82,13.0,22.0,42,0.00,,,0.00,,2013-03-04 20:21:00,
2013-03-04 13:32:00,27.0,6.0,30.14,NE,46,14.0,23.0,40,0.00,,,0.00,,2013-03-04 20:32:00,
2013-03-04 13:41:00,27.0,6.0,30.14,NE,46,14.0,23.0,40,0.00,,,0.00,,2013-03-04 20:41:00,
2013-03-04 13:52:00,28.0,7.0,30.15,North,360,15.0,22.0,40,0.00,,,0.00,,2013-03-04 20:52:00,
2013-03-04 14:01:00,28.0,7.0,30.16,ENE,66,6.0,20.0,40,0.00,,,0.00,,2013-03-04 21:01:00,
2013-03-04 14:11:00,28.0,7.0,30.16,ENE,66,6.0,20.0,40,0.00,,,0.00,,2013-03-04 21:11:00,
2013-03-04 14:21:00,28.0,7.0,30.16,NE,46,13.0,21.0,40,0.00,,,0.00,,2013-03-04 21:21:00,
2013-03-04 14:31:00,28.0,6.0,30.17,NNE,17,8.0,19.0,39,0.00,,,0.00,,2013-03-04 21:31:00,
2013-03-04 14:42:00,28.0,6.0,30.17,NNE,17,8.0,19.0,39,0.00,,,0.00,,2013-03-04 21:42:00,
2013-03-04 14:52:00,29.0,7.0,30.17,SE,130,7.0,15.0,38,0.00,,,0.00,,2013-03-04 21:52:00,
2013-03-04 15:01:00,29.0,7.0,30.18,NNE,24,8.0,21.0,39,0.00,,,0.00,,2013-03-04 22:01:00,
2013-03-04 15:11:00,29.0,7.0,30.18,NNE,24,8.0,21.0,39,0.00,,,0.00,,2013-03-04 22:11:00,
2013-03-04 15:21:00,28.0,6.0,30.20,East,88,9.0,15.0,38,0.00,,,0.00,,2013-03-04 22:21:00,
2013-03-04 15:31:00,28.0,6.0,30.20,South,174,6.0,11.0,38,0.00,,,0.00,,2013-03-04 22:31:00,
2013-03-04 15:42:00,28.0,6.0,30.20,South,174,6.0,11.0,38,0.00,,,0.00,,2013-03-04 22:42:00,
2013-03-04 15:51:00,28.0,6.0,30.21,WSW,239,2.0,11.0,38,0.00,,,0.00,,2013-03-04 22:51:00,
2013-03-04 16:01:00,29.0,7.0,30.22,SSW,202,5.0,9.0,38,0.00,,,0.00,,2013-03-04 23:01:00,
2013-03-04 16:11:00,29.0,7.0,30.22,SSW,202,5.0,9.0,38,0.00,,,0.00,,2013-03-04 23:11:00,
2013-03-04 16:21:00,28.0,6.0,30.22,ENE,75,9.0,12.0,38,0.00,,,0.00,,2013-03-04 23:21:00,
2013-03-04 16:31:00,28.0,6.0,30.23,ENE,63,5.0,13.0,38,0.00,,,0.00,,2013-03-04 23:31:00,
2013-03-04 16:41:00,28.0,6.0,30.23,ENE,63,5.0,13.0,38,0.00,,,0.00,,2013-03-04 23:41:00,
2013-03-04 16:52:00,28.0,6.0,30.23,North,5,5.0,14.0,38,0.00,,,0.00,,2013-03-04 23:52:00,
2013-03-04 17:01:00,27.0,5.0,30.24,NNE,32,9.0,14.0,39,0.00,,,0.00,,2013-03-05 00:01:00,
2013-03-04 17:11:00,27.0,5.0,30.24,NNE,32,9.0,14.0,39,0.00,,,0.00,,2013-03-05 00:11:00,
2013-03-04 17:21:00,26.0,6.0,30.25,NNE,16,6.0,13.0,41,0.00,,,0.00,,2013-03-05 00:21:00,
2013-03-04 17:32:00,26.0,6.0,30.26,NNE,25,8.0,12.0,42,0.00,,,0.00,,2013-03-05 00:32:00,
2013-03-04 17:41:00,26.0,6.0,30.26,NNE,25,8.0,12.0,42,0.00,,,0.00,,2013-03-05 00:41:00,
2013-03-04 17:51:00,25.0,5.0,30.27,NE,34,8.0,13.0,42,0.00,,,0.00,,2013-03-05 00:51:00,
2013-03-04 18:01:00,25.0,5.0,30.27,NNE,21,9.0,17.0,42,0.00,,,0.00,,2013-03-05 01:01:00,
2013-03-04 18:11:00,25.0,5.0,30.27,NNE,21,9.0,17.0,42,0.00,,,0.00,,2013-03-05 01:11:00,
2013-03-04 18:21:00,24.0,5.0,30.27,NE,39,6.0,12.0,43,0.00,,,0.00,,2013-03-05 01:21:00,
2013-03-04 18:32:00,23.0,4.0,30.28,North,360,7.0,10.0,44,0.00,,,0.00,,2013-03-05 01:32:00,
2013-03-04 18:41:00,23.0,4.0,30.28,North,360,7.0,10.0,44,0.00,,,0.00,,2013-03-05 01:41:00,
2013-03-04 18:51:00,23.0,5.0,30.29,SW,219,1.0,8.0,45,0.00,,,0.00,,2013-03-05 01:51:00,
2013-03-04 19:01:00,22.0,5.0,30.29,NW,305,3.0,4.0,47,0.00,,,0.00,,2013-03-05 02:01:00,
2013-03-04 19:11:00,22.0,5.0,30.29,NW,305,3.0,4.0,47,0.00,,,0.00,,2013-03-05 02:11:00,
2013-03-04 19:21:00,21.0,4.0,30.29,SSW,193,2.0,4.0,48,0.00,,,0.00,,2013-03-05 02:21:00,
2013-03-04 19:32:00,21.0,7.0,30.30,North,349,6.0,14.0,53,0.00,,,0.00,,2013-03-05 02:32:00,
2013-03-04 19:41:00,21.0,7.0,30.30,North,349,6.0,14.0,53,0.00,,,0.00,,2013-03-05 02:41:00,
2013-03-04 19:52:00,20.0,8.0,30.31,NE,45,7.0,18.0,59,0.00,,,0.00,,2013-03-05 02:52:00,
2013-03-04 20:01:00,19.0,9.0,30.32,ENE,67,8.0,13.0,63,0.00,,,0.00,,2013-03-05 03:01:00,
2013-03-04 20:12:00,19.0,9.0,30.32,ENE,67,8.0,13.0,63,0.00,,,0.00,,2013-03-05 03:12:00,
2013-03-04 20:21:00,19.0,9.0,30.32,NE,55,7.0,13.0,65,0.00,,,0.00,,2013-03-05 03:21:00,
2013-03-04 20:31:00,18.0,8.0,30.32,North,355,1.0,5.0,64,0.00,,,0.00,,2013-03-05 03:31:00,
2013-03-04 20:41:00,18.0,8.0,30.32,North,355,1.0,5.0,64,0.00,,,0.00,,2013-03-05 03:41:00,
2013-03-04 20:51:00,17.0,8.0,30.33,SE,139,9.0,17.0,67,0.00,,,0.00,,2013-03-05 03:51:00,
2013-03-04 21:01:00,18.0,9.0,30.34,SE,135,9.0,12.0,66,0.00,,,0.00,,2013-03-05 04:01:00,
2013-03-04 21:11:00,18.0,9.0,30.34,SE,135,9.0,12.0,66,0.00,,,0.00,,2013-03-05 04:11:00,
2013-03-04 21:21:00,17.0,8.0,30.35,SSE,147,6.0,9.0,67,0.00,,,0.00,,2013-03-05 04:21:00,
2013-03-04 21:31:00,18.0,8.0,30.35,SE,132,5.0,10.0,65,0.00,,,0.00,,2013-03-05 04:31:00,
2013-03-04 21:41:00,18.0,8.0,30.35,SE,132,5.0,10.0,65,0.00,,,0.00,,2013-03-05 04:41:00,
2013-03-04 21:51:00,18.0,8.0,30.35,ESE,106,4.0,8.0,65,0.00,,,0.00,,2013-03-05 04:51:00,
2013-03-04 22:01:00,17.0,7.0,30.35,ESE,123,4.0,8.0,65,0.00,,,0.00,,2013-03-05 05:01:00,
2013-03-04 22:11:00,17.0,7.0,30.35,ESE,123,4.0,8.0,65,0.00,,,0.00,,2013-03-05 05:11:00,
2013-03-04 22:22:00,17.0,8.0,30.35,SE,132,2.0,4.0,66,0.00,,,0.00,,2013-03-05 05:22:00,
2013-03-04 22:31:00,17.0,8.0,30.35,SE,141,3.0,7.0,67,0.00,,,0.00,,2013-03-05 05:31:00,
2013-03-04 22:41:00,17.0,8.0,30.35,SE,141,3.0,7.0,67,0.00,,,0.00,,2013-03-05 05:41:00,
2013-03-04 22:52:00,17.0,8.0,30.35,SSE,148,5.0,8.0,67,0.00,,,0.00,,2013-03-05 05:52:00,
2013-03-04 23:01:00,17.0,8.0,30.35,SE,142,3.0,6.0,68,0.00,,,0.00,,2013-03-05 06:01:00,
2013-03-04 23:11:00,17.0,8.0,30.35,SE,142,3.0,6.0,68,0.00,,,0.00,,2013-03-05 06:11:00,
2013-03-04 23:22:00,16.0,7.0,30.35,SSE,148,5.0,8.0,68,0.00,,,0.00,,2013-03-05 06:22:00,
2013-03-04 23:31:00,16.0,7.0,30.35,SE,138,3.0,6.0,68,0.00,,,0.00,,2013-03-05 06:31:00,
2013-03-04 23:41:00,16.0,7.0,30.35,SE,138,3.0,6.0,68,0.00,,,0.00,,2013-03-05 06:41:00,
2013-03-04 23:52:00,16.0,7.0,30.35,SE,138,4.0,5.0,68,0.00,,,0.00,,2013-03-05 06:52:00,